Time,TemperatureF,DewpointF,PressureIn,WindDirection,WindDirectionDegrees,WindSpeedMPH,WindSpeedGustMPH,Humidity,HourlyPrecipIn,Conditions,Clouds,dailyrainin,SolarRadiationWatts/m^2,SoftwareType,DateUTC
2013-01-18 00:00:00,36.3,18.3,-100.00,WSW,248,10.1,17.4,47,0.00,,,-99.99,1.0,HOBO +U30 +Weather +,2013-01-18 07:00:00,
2013-01-18 00:05:00,36.3,18.3,-100.00,WSW,253,10.1,15.9,47,0.00,,,-99.99,1.0,HOBO +U30 +Weather +,2013-01-18 07:05:00,
2013-01-18 00:10:00,36.6,18.3,-100.00,WSW,247,11.9,19.7,47,0.00,,,-99.99,1.0,HOBO +U30 +Weather +,2013-01-18 07:10:00,
2013-01-18 00:15:00,36.8,18.4,-100.00,WSW,251,12.3,19.7,46,0.00,,,-99.99,1.0,HOBO +U30 +Weather +,2013-01-18 07:15:00,
2013-01-18 00:20:00,37.1,18.3,-100.00,WSW,248,13.0,21.5,46,0.00,,,-99.99,1.0,HOBO +U30 +Weather +,2013-01-18 07:20:00,
2013-01-18 00:25:00,37.1,18.4,-100.00,WSW,248,16.3,22.6,46,0.00,,,-99.99,1.0,HOBO +U30 +Weather +,2013-01-18 07:25:00,
2013-01-18 00:30:00,36.9,18.4,-100.00,WSW,250,13.0,20.8,46,0.00,,,-99.99,1.0,HOBO +U30 +Weather +,2013-01-18 07:30:00,
2013-01-18 00:35:00,37.3,18.5,-100.00,WSW,248,14.1,23.0,46,0.00,,,-99.99,1.0,HOBO +U30 +Weather +,2013-01-18 07:35:00,
2013-01-18 00:40:00,37.3,18.3,-100.00,WSW,248,15.9,21.5,45,0.00,,,-99.99,1.0,HOBO +U30 +Weather +,2013-01-18 07:40:00,
2013-01-18 00:45:00,37.4,18.4,-100.00,WSW,247,15.2,23.7,45,0.00,,,-99.99,1.0,HOBO +U30 +Weather +,2013-01-18 07:45:00,
2013-01-18 00:50:00,37.2,18.4,-100.00,WSW,246,14.1,21.9,46,0.00,,,-99.99,1.0,HOBO +U30 +Weather +,2013-01-18 07:50:00,
2013-01-18 00:55:00,36.9,18.6,-100.00,SW,234,11.2,19.7,46,0.00,,,-99.99,1.0,HOBO +U30 +Weather +,2013-01-18 07:55:00,
2013-01-18 01:00:00,36.8,18.5,-100.00,WSW,237,11.9,17.4,47,0.00,,,-99.99,1.0,HOBO +U30 +Weather +,2013-01-18 08:00:00,
2013-01-18 01:05:00,36.6,18.5,-100.00,SW,234,10.7,18.6,47,0.00,,,-99.99,1.0,HOBO +U30 +Weather +,2013-01-18 08:05:00,
2013-01-18 01:10:00,36.6,18.5,-100.00,WSW,241,10.7,15.9,47,0.00,,,-99.99,1.0,HOBO +U30 +Weather +,2013-01-18 08:10:00,
2013-01-18 01:15:00,36.8,18.4,-100.00,WSW,244,13.4,23.7,46,0.00,,,-99.99,1.0,HOBO +U30 +Weather +,2013-01-18 08:15:00,
2013-01-18 01:20:00,36.6,18.4,-100.00,WSW,241,10.7,19.2,47,0.00,,,-99.99,1.0,HOBO +U30 +Weather +,2013-01-18 08:20:00,
2013-01-18 01:25:00,37.0,18.2,-100.00,WSW,244,13.4,19.2,46,0.00,,,-99.99,1.0,HOBO +U30 +Weather +,2013-01-18 08:25:00,
2013-01-18 01:30:00,36.8,18.2,-100.00,WSW,248,12.3,20.4,46,0.00,,,-99.99,1.0,HOBO +U30 +Weather +,2013-01-18 08:30:00,
2013-01-18 01:35:00,36.6,18.2,-100.00,WSW,253,10.7,17.4,46,0.00,,,-99.99,1.0,HOBO +U30 +Weather +,2013-01-18 08:35:00,
2013-01-18 01:40:00,36.4,18.1,-100.00,WSW,247,11.2,17.4,46,0.00,,,-99.99,1.0,HOBO +U30 +Weather +,2013-01-18 08:40:00,
2013-01-18 01:45:00,36.1,18.2,-100.00,WSW,247,11.2,19.2,47,0.00,,,-99.99,1.0,HOBO +U30 +Weather +,2013-01-18 08:45:00,
2013-01-18 01:50:00,36.0,18.2,-100.00,WSW,248,13.4,18.6,47,0.00,,,-99.99,1.0,HOBO +U30 +Weather +,2013-01-18 08:50:00,
2013-01-18 01:55:00,36.2,18.2,-100.00,WSW,247,13.4,23.7,47,0.00,,,-99.99,1.0,HOBO +U30 +Weather +,2013-01-18 08:55:00,
2013-01-18 02:00:00,36.4,18.2,-100.00,WSW,248,13.0,19.7,47,0.00,,,-99.99,1.0,HOBO +U30 +Weather +,2013-01-18 09:00:00,
2013-01-18 02:05:00,36.9,18.1,-100.00,WSW,244,14.1,21.9,46,0.00,,,-99.99,1.0,HOBO +U30 +Weather +,2013-01-18 09:05:00,
2013-01-18 02:10:00,36.8,18.2,-100.00,WSW,241,11.9,18.6,46,0.00,,,-99.99,1.0,HOBO +U30 +Weather +,2013-01-18 09:10:00,
2013-01-18 02:15:00,37.0,18.2,-100.00,WSW,237,11.9,17.4,46,0.00,,,-99.99,1.0,HOBO +U30 +Weather +,2013-01-18 09:15:00,
2013-01-18 02:20:00,37.3,18.2,-100.00,WSW,243,11.2,18.1,45,0.00,,,-99.99,1.0,HOBO +U30 +Weather +,2013-01-18 09:20:00,
2013-01-18 02:25:00,37.4,18.2,-100.00,WSW,237,10.7,18.6,45,0.00,,,-99.99,1.0,HOBO +U30 +Weather +,2013-01-18 09:25:00,
2013-01-18 02:30:00,37.1,18.4,-100.00,SW,236,10.1,16.3,46,0.00,,,-99.99,1.0,HOBO +U30 +Weather +,2013-01-18 09:30:00,
2013-01-18 02:35:00,37.1,18.3,-100.00,SW,227,10.7,16.3,46,0.00,,,-99.99,1.0,HOBO +U30 +Weather +,2013-01-18 09:35:00,
2013-01-18 02:40:00,37.1,18.2,-100.00,WSW,244,11.2,14.5,45,0.00,,,-99.99,1.0,HOBO +U30 +Weather +,2013-01-18 09:40:00,
2013-01-18 02:45:00,37.2,18.2,-100.00,WSW,240,11.2,17.4,45,0.00,,,-99.99,1.0,HOBO +U30 +Weather +,2013-01-18 09:45:00,
2013-01-18 02:50:00,37.2,18.2,-100.00,WSW,240,11.2,18.6,45,0.00,,,-99.99,1.0,HOBO +U30 +Weather +,2013-01-18 09:50:00,
2013-01-18 02:55:00,37.2,18.2,-100.00,WSW,248,8.9,15.2,45,0.00,,,-99.99,1.0,HOBO +U30 +Weather +,2013-01-18 09:55:00,
2013-01-18 03:00:00,37.3,18.1,-100.00,WSW,246,10.7,15.2,45,0.00,,,-99.99,1.0,HOBO +U30 +Weather +,2013-01-18 10:00:00,
2013-01-18 03:05:00,37.1,18.2,-100.00,WSW,248,10.7,15.2,45,0.00,,,-99.99,1.0,HOBO +U30 +Weather +,2013-01-18 10:05:00,
2013-01-18 03:10:00,37.0,18.2,-100.00,WSW,243,9.6,14.5,46,0.00,,,-99.99,1.0,HOBO +U30 +Weather +,2013-01-18 10:10:00,
2013-01-18 03:15:00,37.0,18.2,-100.00,SW,230,8.5,15.2,46,0.00,,,-99.99,1.0,HOBO +U30 +Weather +,2013-01-18 10:15:00,
2013-01-18 03:20:00,36.9,18.2,-100.00,SW,226,7.8,13.0,46,0.00,,,-99.99,1.0,HOBO +U30 +Weather +,2013-01-18 10:20:00,
2013-01-18 03:25:00,36.8,18.3,-100.00,SW,227,6.7,13.0,46,0.00,,,-99.99,1.0,HOBO +U30 +Weather +,2013-01-18 10:25:00,
2013-01-18 03:30:00,37.1,18.2,-100.00,WSW,240,8.9,14.1,45,0.00,,,-99.99,1.0,HOBO +U30 +Weather +,2013-01-18 10:30:00,
2013-01-18 03:35:00,37.0,18.2,-100.00,WSW,241,9.6,16.3,46,0.00,,,-99.99,1.0,HOBO +U30 +Weather +,2013-01-18 10:35:00,
2013-01-18 03:40:00,36.8,18.2,-100.00,WSW,243,8.9,15.2,46,0.00,,,-99.99,1.0,HOBO +U30 +Weather +,2013-01-18 10:40:00,
2013-01-18 03:45:00,36.8,18.3,-100.00,SW,227,8.5,13.0,46,0.00,,,-99.99,1.0,HOBO +U30 +Weather +,2013-01-18 10:45:00,
2013-01-18 03:50:00,36.7,18.3,-100.00,SW,232,7.4,11.9,46,0.00,,,-99.99,1.0,HOBO +U30 +Weather +,2013-01-18 10:50:00,
2013-01-18 03:55:00,36.6,18.2,-100.00,SW,236,8.9,15.2,46,0.00,,,-99.99,1.0,HOBO +U30 +Weather +,2013-01-18 10:55:00,
2013-01-18 04:00:00,36.8,18.1,-100.00,SW,234,10.1,18.6,46,0.00,,,-99.99,1.0,HOBO +U30 +Weather +,2013-01-18 11:00:00,
2013-01-18 04:05:00,36.9,18.0,-100.00,WSW,244,11.9,19.2,45,0.00,,,-99.99,1.0,HOBO +U30 +Weather +,2013-01-18 11:05:00,
2013-01-18 04:10:00,37.1,17.9,-100.00,WSW,241,13.0,18.1,45,0.00,,,-99.99,1.0,HOBO +U30 +Weather +,2013-01-18 11:10:00,
2013-01-18 04:15:00,36.8,17.9,-100.00,SW,229,8.5,15.9,45,0.00,,,-99.99,1.0,HOBO +U30 +Weather +,2013-01-18 11:15:00,
2013-01-18 04:20:00,36.6,17.9,-100.00,SW,229,6.7,12.3,46,0.00,,,-99.99,1.0,HOBO +U30 +Weather +,2013-01-18 11:20:00,
2013-01-18 04:25:00,36.5,17.9,-100.00,SW,222,6.7,11.9,46,0.00,,,-99.99,1.0,HOBO +U30 +Weather +,2013-01-18 11:25:00,
2013-01-18 04:30:00,35.7,17.9,-100.00,SSW,209,7.4,13.4,47,0.00,,,-99.99,1.0,HOBO +U30 +Weather +,2013-01-18 11:30:00,
2013-01-18 04:35:00,35.3,17.9,-100.00,SSW,202,6.3,8.9,48,0.00,,,-99.99,1.0,HOBO +U30 +Weather +,2013-01-18 11:35:00,
2013-01-18 04:40:00,34.9,18.0,-100.00,SSW,198,7.4,9.6,49,0.00,,,-99.99,1.0,HOBO +U30 +Weather +,2013-01-18 11:40:00,
2013-01-18 04:45:00,34.7,18.0,-100.00,SSW,199,7.4,10.1,50,0.00,,,-99.99,1.0,HOBO +U30 +Weather +,2013-01-18 11:45:00,
2013-01-18 04:50:00,34.7,18.1,-100.00,SSW,205,6.3,9.6,50,0.00,,,-99.99,1.0,HOBO +U30 +Weather +,2013-01-18 11:50:00,
2013-01-18 04:55:00,34.7,18.1,-100.00,SSW,208,5.6,9.6,50,0.00,,,-99.99,1.0,HOBO +U30 +Weather +,2013-01-18 11:55:00,
2013-01-18 05:00:00,35.1,18.1,-100.00,SSW,209,6.7,13.4,49,0.00,,,-99.99,1.0,HOBO +U30 +Weather +,2013-01-18 12:00:00,
2013-01-18 05:05:00,35.3,18.1,-100.00,SSW,212,6.3,10.7,49,0.00,,,-99.99,1.0,HOBO +U30 +Weather +,2013-01-18 12:05:00,
2013-01-18 05:10:00,35.6,17.9,-100.00,SW,215,5.6,11.2,48,0.00,,,-99.99,1.0,HOBO +U30 +Weather +,2013-01-18 12:10:00,
2013-01-18 05:15:00,35.8,18.0,-100.00,SSW,213,6.7,11.2,47,0.00,,,-99.99,1.0,HOBO +U30 +Weather +,2013-01-18 12:15:00,
2013-01-18 05:20:00,35.6,17.9,-100.00,SSW,211,5.6,9.6,48,0.00,,,-99.99,1.0,HOBO +U30 +Weather +,2013-01-18 12:20:00,
2013-01-18 05:25:00,35.8,18.0,-100.00,SW,216,4.5,10.1,47,0.00,,,-99.99,1.0,HOBO +U30 +Weather +,2013-01-18 12:25:00,
2013-01-18 05:30:00,36.9,17.8,-100.00,SW,234,5.1,12.3,45,0.00,,,-99.99,1.0,HOBO +U30 +Weather +,2013-01-18 12:30:00,
2013-01-18 05:35:00,37.2,17.7,-100.00,SW,230,7.8,13.4,44,0.00,,,-99.99,1.0,HOBO +U30 +Weather +,2013-01-18 12:35:00,
2013-01-18 05:40:00,37.2,17.5,-100.00,SW,230,8.5,16.3,44,0.00,,,-99.99,1.0,HOBO +U30 +Weather +,2013-01-18 12:40:00,
2013-01-18 05:45:00,36.7,17.6,-100.00,SW,215,7.4,12.3,45,0.00,,,-99.99,1.0,HOBO +U30 +Weather +,2013-01-18 12:45:00,
2013-01-18 05:50:00,35.6,17.6,-100.00,SSW,195,8.5,11.2,47,0.00,,,-99.99,1.0,HOBO +U30 +Weather +,2013-01-18 12:50:00,
2013-01-18 05:55:00,33.4,17.5,-100.00,South,174,5.1,7.8,51,0.00,,,-99.99,1.0,HOBO +U30 +Weather +,2013-01-18 12:55:00,
2013-01-18 06:00:00,32.7,17.6,-100.00,South,175,5.6,7.4,53,0.00,,,-99.99,1.0,HOBO +U30 +Weather +,2013-01-18 13:00:00,
2013-01-18 06:05:00,33.2,17.9,-100.00,South,185,4.5,6.3,52,0.00,,,-99.99,1.0,HOBO +U30 +Weather +,2013-01-18 13:05:00,
2013-01-18 06:10:00,33.4,17.9,-100.00,South,185,4.5,6.7,52,0.00,,,-99.99,1.0,HOBO +U30 +Weather +,2013-01-18 13:10:00,
2013-01-18 06:15:00,34.2,17.9,-100.00,SSW,199,4.0,6.7,50,0.00,,,-99.99,1.0,HOBO +U30 +Weather +,2013-01-18 13:15:00,
2013-01-18 06:20:00,35.0,18.0,-100.00,SW,218,5.1,7.4,49,0.00,,,-99.99,1.0,HOBO +U30 +Weather +,2013-01-18 13:20:00,
2013-01-18 06:25:00,36.3,17.7,-100.00,SW,229,6.3,11.2,46,0.00,,,-99.99,1.0,HOBO +U30 +Weather +,2013-01-18 13:25:00,
2013-01-18 06:30:00,36.6,17.3,-100.00,WSW,240,7.8,17.0,45,0.00,,,-99.99,1.0,HOBO +U30 +Weather +,2013-01-18 13:30:00,
2013-01-18 06:35:00,36.2,17.4,-100.00,WSW,243,10.7,18.1,45,0.00,,,-99.99,1.0,HOBO +U30 +Weather +,2013-01-18 13:35:00,
2013-01-18 06:40:00,35.8,17.3,-100.00,WSW,247,11.9,17.4,46,0.00,,,-99.99,1.0,HOBO +U30 +Weather +,2013-01-18 13:40:00,
2013-01-18 06:45:00,35.6,17.4,-100.00,WSW,251,12.3,18.1,46,0.00,,,-99.99,1.0,HOBO +U30 +Weather +,2013-01-18 13:45:00,
2013-01-18 06:50:00,35.4,17.3,-100.00,WSW,248,13.0,18.6,47,0.00,,,-99.99,1.0,HOBO +U30 +Weather +,2013-01-18 13:50:00,
2013-01-18 06:55:00,35.2,17.2,-100.00,WSW,246,12.3,18.1,47,0.00,,,-99.99,1.0,HOBO +U30 +Weather +,2013-01-18 13:55:00,
2013-01-18 07:00:00,34.7,17.2,-100.00,WSW,247,10.1,17.4,48,0.00,,,-99.99,1.0,HOBO +U30 +Weather +,2013-01-18 14:00:00,
2013-01-18 07:05:00,34.2,17.3,-100.00,WSW,247,9.6,15.2,49,0.00,,,-99.99,1.0,HOBO +U30 +Weather +,2013-01-18 14:05:00,
2013-01-18 07:10:00,34.1,17.3,-100.00,WSW,254,8.9,16.3,49,0.00,,,-99.99,1.0,HOBO +U30 +Weather +,2013-01-18 14:10:00,
2013-01-18 07:20:00,34.4,17.1,-100.00,WSW,248,12.3,19.2,48,0.00,,,-99.99,1.0,HOBO +U30 +Weather +,2013-01-18 14:20:00,
2013-01-18 07:25:00,34.6,17.1,-100.00,WSW,246,14.1,20.8,48,0.00,,,-99.99,1.0,HOBO +U30 +Weather +,2013-01-18 14:25:00,
2013-01-18 07:30:00,35.1,17.2,-100.00,WSW,247,14.5,22.6,47,0.00,,,-99.99,3.0,HOBO +U30 +Weather +,2013-01-18 14:30:00,
2013-01-18 07:35:00,35.0,17.3,-100.00,WSW,243,13.0,18.6,48,0.00,,,-99.99,4.0,HOBO +U30 +Weather +,2013-01-18 14:35:00,
2013-01-18 07:40:00,35.0,17.2,-100.00,WSW,246,12.3,20.8,47,0.00,,,-99.99,6.0,HOBO +U30 +Weather +,2013-01-18 14:40:00,
2013-01-18 07:45:00,35.2,17.2,-100.00,WSW,244,12.3,17.4,47,0.00,,,-99.99,7.0,HOBO +U30 +Weather +,2013-01-18 14:45:00,
2013-01-18 07:50:00,34.9,17.2,-100.00,WSW,256,11.9,19.2,48,0.00,,,-99.99,9.0,HOBO +U30 +Weather +,2013-01-18 14:50:00,
2013-01-18 07:55:00,34.9,17.2,-100.00,WSW,253,13.0,19.2,48,0.00,,,-99.99,16.0,HOBO +U30 +Weather +,2013-01-18 14:55:00,
2013-01-18 08:00:00,34.9,17.3,-100.00,WSW,253,11.9,18.6,48,0.00,,,-99.99,24.0,HOBO +U30 +Weather +,2013-01-18 15:00:00,
2013-01-18 08:05:00,34.8,17.3,-100.00,West,260,8.9,13.4,48,0.00,,,-99.99,29.0,HOBO +U30 +Weather +,2013-01-18 15:05:00,
2013-01-18 08:10:00,35.0,17.5,-100.00,West,264,8.9,13.0,48,0.00,,,-99.99,58.0,HOBO +U30 +Weather +,2013-01-18 15:10:00,
2013-01-18 08:15:00,35.2,17.3,-100.00,WSW,257,10.1,15.2,47,0.00,,,-99.99,44.0,HOBO +U30 +Weather +,2013-01-18 15:15:00,
2013-01-18 08:20:00,35.3,17.2,-100.00,WSW,248,13.0,19.2,47,0.00,,,-99.99,51.0,HOBO +U30 +Weather +,2013-01-18 15:20:00,
2013-01-18 08:25:00,35.5,17.3,-100.00,WSW,248,12.3,20.8,47,0.00,,,-99.99,89.0,HOBO +U30 +Weather +,2013-01-18 15:25:00,
2013-01-18 08:30:00,35.4,17.1,-100.00,WSW,250,11.9,19.7,46,0.00,,,-99.99,54.0,HOBO +U30 +Weather +,2013-01-18 15:30:00,
2013-01-18 08:35:00,35.5,17.3,-100.00,WSW,256,10.1,18.1,47,0.00,,,-99.99,56.0,HOBO +U30 +Weather +,2013-01-18 15:35:00,
2013-01-18 08:40:00,35.7,17.4,-100.00,West,260,8.9,14.1,46,0.00,,,-99.99,68.0,HOBO +U30 +Weather +,2013-01-18 15:40:00,
2013-01-18 08:45:00,35.7,17.5,-100.00,West,260,7.4,13.4,47,0.00,,,-99.99,68.0,HOBO +U30 +Weather +,2013-01-18 15:45:00,
2013-01-18 08:50:00,35.7,17.4,-100.00,WSW,257,7.8,13.0,46,0.00,,,-99.99,73.0,HOBO +U30 +Weather +,2013-01-18 15:50:00,
2013-01-18 08:55:00,35.8,17.5,-100.00,WSW,250,7.8,12.3,46,0.00,,,-99.99,86.0,HOBO +U30 +Weather +,2013-01-18 15:55:00,
2013-01-18 09:00:00,35.9,17.5,-100.00,WSW,247,8.9,14.5,46,0.00,,,-99.99,89.0,HOBO +U30 +Weather +,2013-01-18 16:00:00,
2013-01-18 09:05:00,36.1,17.4,-100.00,WSW,247,7.8,14.5,46,0.00,,,-99.99,113.0,HOBO +U30 +Weather +,2013-01-18 16:05:00,
2013-01-18 09:10:00,36.3,17.6,-100.00,WSW,244,8.9,14.5,46,0.00,,,-99.99,124.0,HOBO +U30 +Weather +,2013-01-18 16:10:00,
2013-01-18 09:15:00,36.6,17.6,-100.00,WSW,240,7.8,11.2,45,0.00,,,-99.99,119.0,HOBO +U30 +Weather +,2013-01-18 16:15:00,
2013-01-18 09:20:00,37.1,17.6,-100.00,WSW,237,7.8,12.3,44,0.00,,,-99.99,133.0,HOBO +U30 +Weather +,2013-01-18 16:20:00,
2013-01-18 09:25:00,37.8,18.1,-100.00,SW,227,5.6,11.9,44,0.00,,,-99.99,206.0,HOBO +U30 +Weather +,2013-01-18 16:25:00,
2013-01-18 09:30:00,37.8,17.9,-100.00,SW,215,4.5,8.5,44,0.00,,,-99.99,107.0,HOBO +U30 +Weather +,2013-01-18 16:30:00,
2013-01-18 09:35:00,38.0,18.3,-100.00,SSW,201,5.1,8.5,44,0.00,,,-99.99,156.0,HOBO +U30 +Weather +,2013-01-18 16:35:00,
2013-01-18 09:40:00,38.3,18.4,-100.00,SSW,202,6.7,12.3,44,0.00,,,-99.99,319.0,HOBO +U30 +Weather +,2013-01-18 16:40:00,
2013-01-18 09:45:00,39.3,18.9,-100.00,SSW,201,5.6,10.7,43,0.00,,,-99.99,346.0,HOBO +U30 +Weather +,2013-01-18 16:45:00,
2013-01-18 10:05:00,40.6,18.1,-100.00,WSW,243,6.7,11.9,39,0.00,,,-99.99,183.0,HOBO +U30 +Weather +,2013-01-18 17:05:00,
2013-01-18 10:10:00,40.7,18.2,-100.00,WSW,237,7.8,13.4,39,0.00,,,-99.99,192.0,HOBO +U30 +Weather +,2013-01-18 17:10:00,
2013-01-18 10:15:00,40.4,18.4,-100.00,SW,226,10.1,17.0,40,0.00,,,-99.99,182.0,HOBO +U30 +Weather +,2013-01-18 17:15:00,
2013-01-18 10:20:00,40.6,18.9,-100.00,SW,215,7.8,13.0,41,0.00,,,-99.99,186.0,HOBO +U30 +Weather +,2013-01-18 17:20:00,
2013-01-18 10:25:00,41.0,19.1,-100.00,SSW,209,6.7,11.2,40,0.00,,,-99.99,176.0,HOBO +U30 +Weather +,2013-01-18 17:25:00,
2013-01-18 10:30:00,41.2,19.1,-100.00,SSW,211,7.8,11.9,40,0.00,,,-99.99,177.0,HOBO +U30 +Weather +,2013-01-18 17:30:00,
2013-01-18 10:35:00,41.3,19.3,-100.00,SSW,209,8.5,14.1,40,0.00,,,-99.99,233.0,HOBO +U30 +Weather +,2013-01-18 17:35:00,
2013-01-18 10:40:00,41.9,18.7,-100.00,SSW,213,7.8,11.2,38,0.00,,,-99.99,212.0,HOBO +U30 +Weather +,2013-01-18 17:40:00,
2013-01-18 10:45:00,42.2,19.6,-100.00,SSW,213,5.6,10.1,39,0.00,,,-99.99,226.0,HOBO +U30 +Weather +,2013-01-18 17:45:00,
2013-01-18 10:50:00,42.3,19.4,-100.00,SSW,208,6.3,10.1,39,0.00,,,-99.99,218.0,HOBO +U30 +Weather +,2013-01-18 17:50:00,
2013-01-18 10:55:00,42.7,19.9,-100.00,SSW,212,4.0,8.9,39,0.00,,,-99.99,327.0,HOBO +U30 +Weather +,2013-01-18 17:55:00,
2013-01-18 11:00:00,42.9,19.9,-100.00,SW,215,5.6,10.1,39,0.00,,,-99.99,228.0,HOBO +U30 +Weather +,2013-01-18 18:00:00,
2013-01-18 11:05:00,43.0,20.0,-100.00,SW,226,5.6,11.9,39,0.00,,,-99.99,231.0,HOBO +U30 +Weather +,2013-01-18 18:05:00,
2013-01-18 11:10:00,43.4,20.0,-100.00,SW,236,6.7,10.1,38,0.00,,,-99.99,224.0,HOBO +U30 +Weather +,2013-01-18 18:10:00,
2013-01-18 11:15:00,44.0,20.0,-100.00,SW,229,6.7,10.1,37,0.00,,,-99.99,239.0,HOBO +U30 +Weather +,2013-01-18 18:15:00,
2013-01-18 11:20:00,44.1,19.4,-100.00,SW,236,6.7,10.1,36,0.00,,,-99.99,178.0,HOBO +U30 +Weather +,2013-01-18 18:20:00,
2013-01-18 11:25:00,44.1,19.4,-100.00,WSW,241,6.3,10.7,36,0.00,,,-99.99,197.0,HOBO +U30 +Weather +,2013-01-18 18:25:00,
2013-01-18 11:30:00,44.7,19.8,-100.00,WSW,247,7.4,11.9,36,0.00,,,-99.99,282.0,HOBO +U30 +Weather +,2013-01-18 18:30:00,
2013-01-18 11:35:00,44.8,19.8,-100.00,WSW,247,7.8,14.1,36,0.00,,,-99.99,227.0,HOBO +U30 +Weather +,2013-01-18 18:35:00,
2013-01-18 11:40:00,44.3,20.0,-100.00,WSW,254,7.8,10.7,37,0.00,,,-99.99,192.0,HOBO +U30 +Weather +,2013-01-18 18:40:00,
2013-01-18 11:45:00,44.4,20.5,-100.00,WSW,251,6.7,9.6,38,0.00,,,-99.99,223.0,HOBO +U30 +Weather +,2013-01-18 18:45:00,
2013-01-18 11:50:00,44.3,20.5,-100.00,WSW,244,6.7,11.9,38,0.00,,,-99.99,198.0,HOBO +U30 +Weather +,2013-01-18 18:50:00,
2013-01-18 11:55:00,44.8,21.1,-100.00,West,268,5.6,8.9,38,0.00,,,-99.99,297.0,HOBO +U30 +Weather +,2013-01-18 18:55:00,
2013-01-18 12:00:00,44.7,21.0,-100.00,West,264,3.4,6.7,38,0.00,,,-99.99,211.0,HOBO +U30 +Weather +,2013-01-18 19:00:00,
2013-01-18 12:05:00,45.1,20.7,-100.00,SW,236,2.9,7.4,37,0.00,,,-99.99,194.0,HOBO +U30 +Weather +,2013-01-18 19:05:00,
2013-01-18 12:10:00,45.8,21.3,-100.00,SW,219,2.2,5.6,37,0.00,,,-99.99,201.0,HOBO +U30 +Weather +,2013-01-18 19:10:00,
2013-01-18 12:15:00,46.0,20.6,-100.00,WSW,240,3.4,6.7,36,0.00,,,-99.99,206.0,HOBO +U30 +Weather +,2013-01-18 19:15:00,
2013-01-18 12:20:00,47.0,21.6,-100.00,SW,236,2.9,7.4,36,0.00,,,-99.99,179.0,HOBO +U30 +Weather +,2013-01-18 19:20:00,
2013-01-18 12:25:00,46.5,21.1,-100.00,WSW,240,2.2,6.7,36,0.00,,,-99.99,136.0,HOBO +U30 +Weather +,2013-01-18 19:25:00,
2013-01-18 12:30:00,46.7,21.0,-100.00,WSW,237,4.0,6.7,35,0.00,,,-99.99,391.0,HOBO +U30 +Weather +,2013-01-18 19:30:00,
2013-01-18 12:35:00,47.0,22.3,-100.00,South,188,2.9,6.3,37,0.00,,,-99.99,176.0,HOBO +U30 +Weather +,2013-01-18 19:35:00,
2013-01-18 12:40:00,49.1,22.9,-100.00,SW,226,1.8,5.6,35,0.00,,,-99.99,467.0,HOBO +U30 +Weather +,2013-01-18 19:40:00,
2013-01-18 12:45:00,49.1,21.6,-100.00,SW,236,4.5,7.8,33,0.00,,,-99.99,509.0,HOBO +U30 +Weather +,2013-01-18 19:45:00,
2013-01-18 12:50:00,49.2,21.1,-100.00,WSW,254,6.7,10.7,32,0.00,,,-99.99,391.0,HOBO +U30 +Weather +,2013-01-18 19:50:00,
2013-01-18 12:55:00,50.4,21.2,-100.00,WSW,254,4.5,8.9,31,0.00,,,-99.99,508.0,HOBO +U30 +Weather +,2013-01-18 19:55:00,
2013-01-18 13:00:00,50.1,19.9,-100.00,WSW,248,10.1,20.4,30,0.00,,,-99.99,569.0,HOBO +U30 +Weather +,2013-01-18 20:00:00,
2013-01-18 13:05:00,50.3,20.5,-100.00,SW,229,10.7,20.4,30,0.00,,,-99.99,256.0,HOBO +U30 +Weather +,2013-01-18 20:05:00,
2013-01-18 13:10:00,50.0,20.3,-100.00,SW,226,11.9,20.4,30,0.00,,,-99.99,297.0,HOBO +U30 +Weather +,2013-01-18 20:10:00,
2013-01-18 13:15:00,50.6,20.8,-100.00,SW,222,8.9,16.3,30,0.00,,,-99.99,372.0,HOBO +U30 +Weather +,2013-01-18 20:15:00,
2013-01-18 13:20:00,50.2,20.8,-100.00,SW,225,7.8,14.1,31,0.00,,,-99.99,344.0,HOBO +U30 +Weather +,2013-01-18 20:20:00,
2013-01-18 13:25:00,50.6,19.9,-100.00,SW,226,8.5,13.4,29,0.00,,,-99.99,376.0,HOBO +U30 +Weather +,2013-01-18 20:25:00,
2013-01-18 13:30:00,50.9,20.0,-100.00,SW,223,6.7,12.3,29,0.00,,,-99.99,262.0,HOBO +U30 +Weather +,2013-01-18 20:30:00,
2013-01-18 13:35:00,51.4,20.4,-100.00,SW,222,6.3,11.2,29,0.00,,,-99.99,262.0,HOBO +U30 +Weather +,2013-01-18 20:35:00,
2013-01-18 13:40:00,52.4,20.2,-100.00,SW,225,6.7,12.3,27,0.00,,,-99.99,493.0,HOBO +U30 +Weather +,2013-01-18 20:40:00,
2013-01-18 13:45:00,52.7,19.6,-100.00,WSW,240,7.8,12.3,26,0.00,,,-99.99,509.0,HOBO +U30 +Weather +,2013-01-18 20:45:00,
2013-01-18 13:50:00,53.0,20.7,-100.00,WSW,240,5.6,9.6,27,0.00,,,-99.99,384.0,HOBO +U30 +Weather +,2013-01-18 20:50:00,
2013-01-18 13:55:00,53.5,19.9,-100.00,SW,230,7.4,14.1,26,0.00,,,-99.99,293.0,HOBO +U30 +Weather +,2013-01-18 20:55:00,
2013-01-18 14:00:00,53.4,18.7,-100.00,SW,236,8.5,14.5,25,0.00,,,-99.99,371.0,HOBO +U30 +Weather +,2013-01-18 21:00:00,
2013-01-18 14:05:00,53.0,18.8,-100.00,SW,234,10.1,18.6,25,0.00,,,-99.99,272.0,HOBO +U30 +Weather +,2013-01-18 21:05:00,
2013-01-18 14:10:00,53.2,19.6,-100.00,SW,236,8.5,16.3,26,0.00,,,-99.99,402.0,HOBO +U30 +Weather +,2013-01-18 21:10:00,
2013-01-18 14:15:00,52.5,19.3,-100.00,SW,225,8.9,17.0,26,0.00,,,-99.99,231.0,HOBO +U30 +Weather +,2013-01-18 21:15:00,
2013-01-18 14:20:00,52.5,19.2,-100.00,SW,222,10.7,20.4,26,0.00,,,-99.99,216.0,HOBO +U30 +Weather +,2013-01-18 21:20:00,
2013-01-18 14:25:00,52.0,19.6,-100.00,SW,223,9.6,17.4,27,0.00,,,-99.99,178.0,HOBO +U30 +Weather +,2013-01-18 21:25:00,
2013-01-18 14:30:00,51.4,19.2,-100.00,SW,229,8.5,12.3,27,0.00,,,-99.99,146.0,HOBO +U30 +Weather +,2013-01-18 21:30:00,
2013-01-18 14:35:00,50.5,19.0,-100.00,WSW,237,11.2,17.4,28,0.00,,,-99.99,121.0,HOBO +U30 +Weather +,2013-01-18 21:35:00,
2013-01-18 14:40:00,50.0,19.4,-100.00,WSW,253,7.4,12.3,29,0.00,,,-99.99,122.0,HOBO +U30 +Weather +,2013-01-18 21:40:00,
2013-01-18 14:45:00,49.5,19.4,-100.00,WSW,241,6.7,15.9,30,0.00,,,-99.99,117.0,HOBO +U30 +Weather +,2013-01-18 21:45:00,
2013-01-18 14:50:00,49.2,19.9,-100.00,WSW,257,6.3,13.0,31,0.00,,,-99.99,107.0,HOBO +U30 +Weather +,2013-01-18 21:50:00,
2013-01-18 14:55:00,48.8,19.9,-100.00,WSW,258,5.6,14.1,31,0.00,,,-99.99,108.0,HOBO +U30 +Weather +,2013-01-18 21:55:00,
2013-01-18 15:00:00,48.1,19.4,-100.00,WSW,246,6.7,15.9,31,0.00,,,-99.99,102.0,HOBO +U30 +Weather +,2013-01-18 22:00:00,
2013-01-18 15:05:00,47.8,19.9,-100.00,WSW,243,5.6,13.0,32,0.00,,,-99.99,94.0,HOBO +U30 +Weather +,2013-01-18 22:05:00,
2013-01-18 15:10:00,47.6,19.6,-100.00,WSW,256,6.7,14.1,32,0.00,,,-99.99,87.0,HOBO +U30 +Weather +,2013-01-18 22:10:00,
2013-01-18 15:15:00,47.5,19.9,-100.00,WSW,257,5.6,11.2,33,0.00,,,-99.99,81.0,HOBO +U30 +Weather +,2013-01-18 22:15:00,
2013-01-18 15:20:00,47.3,19.8,-100.00,West,260,6.3,13.0,33,0.00,,,-99.99,83.0,HOBO +U30 +Weather +,2013-01-18 22:20:00,
2013-01-18 15:25:00,47.2,20.1,-100.00,WSW,250,4.5,8.9,33,0.00,,,-99.99,87.0,HOBO +U30 +Weather +,2013-01-18 22:25:00,
2013-01-18 15:30:00,46.9,19.9,-100.00,WSW,250,7.8,13.0,33,0.00,,,-99.99,84.0,HOBO +U30 +Weather +,2013-01-18 22:30:00,
2013-01-18 15:35:00,46.8,20.2,-100.00,WSW,247,7.4,11.9,34,0.00,,,-99.99,97.0,HOBO +U30 +Weather +,2013-01-18 22:35:00,
2013-01-18 15:40:00,46.5,19.9,-100.00,SW,236,8.5,13.0,34,0.00,,,-99.99,68.0,HOBO +U30 +Weather +,2013-01-18 22:40:00,
2013-01-18 15:45:00,46.3,20.3,-100.00,WSW,239,6.7,13.0,35,0.00,,,-99.99,61.0,HOBO +U30 +Weather +,2013-01-18 22:45:00,
2013-01-18 15:50:00,46.5,20.2,-100.00,WSW,247,7.4,11.9,34,0.00,,,-99.99,61.0,HOBO +U30 +Weather +,2013-01-18 22:50:00,
2013-01-18 15:55:00,46.4,20.6,-100.00,West,261,6.3,11.9,35,0.00,,,-99.99,54.0,HOBO +U30 +Weather +,2013-01-18 22:55:00,
2013-01-18 16:00:00,46.2,20.6,-100.00,West,265,5.6,8.9,35,0.00,,,-99.99,54.0,HOBO +U30 +Weather +,2013-01-18 23:00:00,
2013-01-18 16:05:00,45.9,21.0,-100.00,West,263,4.0,7.8,36,0.00,,,-99.99,51.0,HOBO +U30 +Weather +,2013-01-18 23:05:00,
2013-01-18 16:10:00,46.2,21.2,-100.00,WSW,246,6.3,10.1,36,0.00,,,-99.99,43.0,HOBO +U30 +Weather +,2013-01-18 23:10:00,
2013-01-18 16:15:00,46.0,21.3,-100.00,West,277,4.0,8.5,37,0.00,,,-99.99,33.0,HOBO +U30 +Weather +,2013-01-18 23:15:00,
2013-01-18 16:40:00,47.8,20.2,-100.00,WSW,253,8.9,15.2,33,0.00,,,-99.99,8.0,HOBO +U30 +Weather +,2013-01-18 23:40:00,
2013-01-18 16:45:00,47.6,20.0,-100.00,West,261,7.4,11.2,33,0.00,,,-99.99,4.0,HOBO +U30 +Weather +,2013-01-18 23:45:00,
2013-01-18 16:50:00,48.2,19.9,-100.00,WSW,251,6.7,11.9,32,0.00,,,-99.99,2.0,HOBO +U30 +Weather +,2013-01-18 23:50:00,
2013-01-18 16:55:00,46.9,20.3,-100.00,West,277,4.5,8.5,34,0.00,,,-99.99,1.0,HOBO +U30 +Weather +,2013-01-18 23:55:00,
2013-01-18 17:10:00,47.3,20.3,-100.00,WSW,247,5.6,8.9,33,0.00,,,-99.99,1.0,HOBO +U30 +Weather +,2013-01-19 00:10:00,
2013-01-18 17:15:00,47.2,20.2,-100.00,WSW,240,2.9,7.4,33,0.00,,,-99.99,1.0,HOBO +U30 +Weather +,2013-01-19 00:15:00,
2013-01-18 17:20:00,46.6,20.4,-100.00,West,264,1.8,4.5,35,0.00,,,-99.99,1.0,HOBO +U30 +Weather +,2013-01-19 00:20:00,
2013-01-18 17:25:00,46.6,20.4,-100.00,West,270,3.4,6.3,34,0.00,,,-99.99,1.0,HOBO +U30 +Weather +,2013-01-19 00:25:00,
2013-01-18 17:30:00,47.2,20.0,-100.00,WSW,248,3.4,5.6,33,0.00,,,-99.99,1.0,HOBO +U30 +Weather +,2013-01-19 00:30:00,
2013-01-18 17:35:00,47.4,20.2,-100.00,WSW,251,4.0,8.5,33,0.00,,,-99.99,1.0,HOBO +U30 +Weather +,2013-01-19 00:35:00,
2013-01-18 17:40:00,46.2,20.5,-100.00,West,277,4.5,8.9,35,0.00,,,-99.99,1.0,HOBO +U30 +Weather +,2013-01-19 00:40:00,
2013-01-18 17:45:00,46.5,20.3,-100.00,West,260,4.0,7.4,34,0.00,,,-99.99,1.0,HOBO +U30 +Weather +,2013-01-19 00:45:00,
2013-01-18 17:50:00,46.5,20.1,-100.00,West,263,4.0,7.4,34,0.00,,,-99.99,1.0,HOBO +U30 +Weather +,2013-01-19 00:50:00,
2013-01-18 17:55:00,46.6,20.2,-100.00,WSW,253,4.5,7.8,34,0.00,,,-99.99,1.0,HOBO +U30 +Weather +,2013-01-19 00:55:00,
2013-01-18 18:00:00,46.5,20.2,-100.00,WSW,251,3.4,7.8,34,0.00,,,-99.99,1.0,HOBO +U30 +Weather +,2013-01-19 01:00:00,
2013-01-18 18:05:00,46.7,19.9,-100.00,WSW,257,4.0,7.4,34,0.00,,,-99.99,1.0,HOBO +U30 +Weather +,2013-01-19 01:05:00,
2013-01-18 18:10:00,46.6,19.9,-100.00,WSW,258,5.1,10.7,34,0.00,,,-99.99,1.0,HOBO +U30 +Weather +,2013-01-19 01:10:00,
2013-01-18 18:15:00,46.8,19.9,-100.00,WSW,257,6.7,11.9,33,0.00,,,-99.99,1.0,HOBO +U30 +Weather +,2013-01-19 01:15:00,
2013-01-18 18:20:00,46.3,20.0,-100.00,WSW,257,6.7,11.2,34,0.00,,,-99.99,1.0,HOBO +U30 +Weather +,2013-01-19 01:20:00,
2013-01-18 18:25:00,46.1,20.1,-100.00,WSW,248,7.8,14.1,35,0.00,,,-99.99,1.0,HOBO +U30 +Weather +,2013-01-19 01:25:00,
2013-01-18 18:30:00,45.8,20.2,-100.00,WSW,243,7.8,14.5,35,0.00,,,-99.99,1.0,HOBO +U30 +Weather +,2013-01-19 01:30:00,
2013-01-18 18:35:00,45.4,20.4,-100.00,WSW,244,6.3,11.9,36,0.00,,,-99.99,1.0,HOBO +U30 +Weather +,2013-01-19 01:35:00,
2013-01-18 18:40:00,45.4,20.2,-100.00,WSW,248,5.1,9.6,36,0.00,,,-99.99,1.0,HOBO +U30 +Weather +,2013-01-19 01:40:00,
2013-01-18 18:45:00,45.2,20.6,-100.00,WSW,248,5.6,10.1,37,0.00,,,-99.99,1.0,HOBO +U30 +Weather +,2013-01-19 01:45:00,
2013-01-18 18:50:00,45.1,20.7,-100.00,SW,219,5.6,11.9,37,0.00,,,-99.99,1.0,HOBO +U30 +Weather +,2013-01-19 01:50:00,
2013-01-18 18:55:00,45.0,21.0,-100.00,SW,230,3.4,8.9,38,0.00,,,-99.99,1.0,HOBO +U30 +Weather +,2013-01-19 01:55:00,
2013-01-18 19:00:00,44.9,20.7,-100.00,SW,234,3.4,7.4,37,0.00,,,-99.99,1.0,HOBO +U30 +Weather +,2013-01-19 02:00:00,
2013-01-18 19:05:00,44.7,21.0,-100.00,SW,230,3.4,6.7,38,0.00,,,-99.99,1.0,HOBO +U30 +Weather +,2013-01-19 02:05:00,
2013-01-18 19:10:00,44.4,21.5,-100.00,SSW,212,1.8,4.0,39,0.00,,,-99.99,1.0,HOBO +U30 +Weather +,2013-01-19 02:10:00,
2013-01-18 19:15:00,43.8,21.2,-100.00,South,191,1.8,4.5,40,0.00,,,-99.99,1.0,HOBO +U30 +Weather +,2013-01-19 02:15:00,
2013-01-18 19:20:00,44.0,21.2,-100.00,WSW,240,0.0,2.9,39,0.00,,,-99.99,1.0,HOBO +U30 +Weather +,2013-01-19 02:20:00,
2013-01-18 19:25:00,44.0,21.4,-100.00,WSW,240,0.0,2.2,40,0.00,,,-99.99,1.0,HOBO +U30 +Weather +,2013-01-19 02:25:00,
2013-01-18 19:30:00,43.9,20.9,-100.00,WSW,237,1.1,4.0,39,0.00,,,-99.99,1.0,HOBO +U30 +Weather +,2013-01-19 02:30:00,
2013-01-18 19:35:00,44.0,21.3,-100.00,SW,233,0.7,2.9,40,0.00,,,-99.99,1.0,HOBO +U30 +Weather +,2013-01-19 02:35:00,
2013-01-18 19:40:00,44.4,21.1,-100.00,SW,219,0.0,2.2,39,0.00,,,-99.99,1.0,HOBO +U30 +Weather +,2013-01-19 02:40:00,
2013-01-18 19:45:00,43.6,20.8,-100.00,South,184,1.8,3.4,39,0.00,,,-99.99,1.0,HOBO +U30 +Weather +,2013-01-19 02:45:00,
2013-01-18 19:50:00,43.5,21.0,-100.00,South,174,1.8,3.4,40,0.00,,,-99.99,1.0,HOBO +U30 +Weather +,2013-01-19 02:50:00,
2013-01-18 19:55:00,43.7,20.8,-100.00,South,174,3.4,5.1,39,0.00,,,-99.99,1.0,HOBO +U30 +Weather +,2013-01-19 02:55:00,
2013-01-18 20:00:00,43.8,20.8,-100.00,South,178,3.4,5.6,39,0.00,,,-99.99,1.0,HOBO +U30 +Weather +,2013-01-19 03:00:00,
2013-01-18 20:05:00,43.5,21.6,-100.00,SSW,194,2.9,5.1,41,0.00,,,-99.99,1.0,HOBO +U30 +Weather +,2013-01-19 03:05:00,
2013-01-18 20:10:00,43.2,21.3,-100.00,SSW,195,0.0,0.7,41,0.00,,,-99.99,1.0,HOBO +U30 +Weather +,2013-01-19 03:10:00,
2013-01-18 20:15:00,41.9,22.4,-100.00,SSW,195,0.7,2.9,45,0.00,,,-99.99,1.0,HOBO +U30 +Weather +,2013-01-19 03:15:00,
2013-01-18 20:20:00,41.6,21.7,-100.00,SSW,192,0.7,2.2,44,0.00,,,-99.99,1.0,HOBO +U30 +Weather +,2013-01-19 03:20:00,
2013-01-18 20:25:00,42.4,21.6,-100.00,SSW,192,0.0,2.2,43,0.00,,,-99.99,1.0,HOBO +U30 +Weather +,2013-01-19 03:25:00,
2013-01-18 20:30:00,42.7,22.1,-100.00,SSW,192,1.8,4.5,43,0.00,,,-99.99,1.0,HOBO +U30 +Weather +,2013-01-19 03:30:00,
2013-01-18 20:35:00,42.3,21.8,-100.00,South,188,4.0,5.6,43,0.00,,,-99.99,1.0,HOBO +U30 +Weather +,2013-01-19 03:35:00,
2013-01-18 20:40:00,42.5,21.5,-100.00,South,177,4.0,7.4,42,0.00,,,-99.99,1.0,HOBO +U30 +Weather +,2013-01-19 03:40:00,
2013-01-18 20:45:00,43.1,22.1,-100.00,South,175,6.7,8.5,42,0.00,,,-99.99,1.0,HOBO +U30 +Weather +,2013-01-19 03:45:00,
2013-01-18 20:50:00,42.9,22.2,-100.00,South,174,6.3,7.8,43,0.00,,,-99.99,1.0,HOBO +U30 +Weather +,2013-01-19 03:50:00,
2013-01-18 20:55:00,43.6,21.5,-100.00,South,173,7.8,9.6,41,0.00,,,-99.99,1.0,HOBO +U30 +Weather +,2013-01-19 03:55:00,
2013-01-18 21:00:00,42.6,21.8,-100.00,South,188,5.1,10.1,43,0.00,,,-99.99,1.0,HOBO +U30 +Weather +,2013-01-19 04:00:00,
2013-01-18 21:05:00,42.4,21.8,-100.00,SSW,205,3.4,7.8,43,0.00,,,-99.99,1.0,HOBO +U30 +Weather +,2013-01-19 04:05:00,
2013-01-18 21:10:00,42.2,21.6,-100.00,SSW,202,4.0,7.8,43,0.00,,,-99.99,1.0,HOBO +U30 +Weather +,2013-01-19 04:10:00,
2013-01-18 21:15:00,42.2,21.7,-100.00,SSW,209,4.0,7.4,43,0.00,,,-99.99,1.0,HOBO +U30 +Weather +,2013-01-19 04:15:00,
2013-01-18 21:20:00,41.5,22.0,-100.00,SSW,212,3.4,6.3,45,0.00,,,-99.99,1.0,HOBO +U30 +Weather +,2013-01-19 04:20:00,
2013-01-18 21:25:00,40.4,22.2,-100.00,SW,226,1.1,3.4,47,0.00,,,-99.99,1.0,HOBO +U30 +Weather +,2013-01-19 04:25:00,
2013-01-18 21:30:00,39.9,22.4,-100.00,WSW,256,1.8,4.5,49,0.00,,,-99.99,1.0,HOBO +U30 +Weather +,2013-01-19 04:30:00,
2013-01-18 21:35:00,39.8,22.7,-100.00,WSW,241,2.2,4.5,49,0.00,,,-99.99,1.0,HOBO +U30 +Weather +,2013-01-19 04:35:00,
2013-01-18 21:40:00,39.8,22.2,-100.00,SW,233,0.7,2.2,49,0.00,,,-99.99,1.0,HOBO +U30 +Weather +,2013-01-19 04:40:00,
2013-01-18 21:45:00,40.2,21.8,-100.00,SW,234,3.4,7.4,47,0.00,,,-99.99,1.0,HOBO +U30 +Weather +,2013-01-19 04:45:00,
2013-01-18 21:50:00,40.2,21.7,-100.00,SW,232,3.4,6.3,47,0.00,,,-99.99,1.0,HOBO +U30 +Weather +,2013-01-19 04:50:00,
2013-01-18 21:55:00,40.0,21.6,-100.00,WSW,241,1.1,4.0,47,0.00,,,-99.99,1.0,HOBO +U30 +Weather +,2013-01-19 04:55:00,
2013-01-18 22:00:00,39.7,22.1,-100.00,SW,216,1.8,6.3,49,0.00,,,-99.99,1.0,HOBO +U30 +Weather +,2013-01-19 05:00:00,
2013-01-18 22:05:00,39.4,21.8,-100.00,SW,229,3.4,8.9,49,0.00,,,-99.99,1.0,HOBO +U30 +Weather +,2013-01-19 05:05:00,
2013-01-18 22:10:00,39.7,22.1,-100.00,SW,222,1.8,6.3,48,0.00,,,-99.99,1.0,HOBO +U30 +Weather +,2013-01-19 05:10:00,
2013-01-18 22:15:00,39.9,21.5,-100.00,WSW,247,2.2,7.8,47,0.00,,,-99.99,1.0,HOBO +U30 +Weather +,2013-01-19 05:15:00,
2013-01-18 22:20:00,41.6,21.6,-100.00,WSW,239,4.5,6.3,44,0.00,,,-99.99,1.0,HOBO +U30 +Weather +,2013-01-19 05:20:00,
2013-01-18 22:25:00,40.4,21.0,-100.00,NW,305,2.2,6.3,45,0.00,,,-99.99,1.0,HOBO +U30 +Weather +,2013-01-19 05:25:00,
2013-01-18 22:30:00,42.0,20.5,-100.00,WNW,284,1.8,3.4,41,0.00,,,-99.99,1.0,HOBO +U30 +Weather +,2013-01-19 05:30:00,
2013-01-18 22:35:00,42.5,19.9,-100.00,West,277,2.2,6.3,40,0.00,,,-99.99,1.0,HOBO +U30 +Weather +,2013-01-19 05:35:00,
2013-01-18 22:40:00,42.0,20.5,-100.00,WSW,257,1.8,4.0,41,0.00,,,-99.99,1.0,HOBO +U30 +Weather +,2013-01-19 05:40:00,
2013-01-18 22:45:00,42.5,19.9,-100.00,West,271,2.2,5.6,40,0.00,,,-99.99,1.0,HOBO +U30 +Weather +,2013-01-19 05:45:00,
2013-01-18 22:50:00,42.0,19.7,-100.00,West,264,4.0,6.7,40,0.00,,,-99.99,1.0,HOBO +U30 +Weather +,2013-01-19 05:50:00,
2013-01-18 22:55:00,42.3,19.8,-100.00,WSW,240,4.0,5.6,40,0.00,,,-99.99,1.0,HOBO +U30 +Weather +,2013-01-19 05:55:00,
2013-01-18 23:00:00,42.1,19.7,-100.00,WSW,240,4.0,7.8,40,0.00,,,-99.99,1.0,HOBO +U30 +Weather +,2013-01-19 06:00:00,
2013-01-18 23:05:00,42.2,19.4,-100.00,SW,227,4.0,7.4,39,0.00,,,-99.99,1.0,HOBO +U30 +Weather +,2013-01-19 06:05:00,
2013-01-18 23:10:00,41.9,19.4,-100.00,WSW,239,4.5,8.9,40,0.00,,,-99.99,1.0,HOBO +U30 +Weather +,2013-01-19 06:10:00,
2013-01-18 23:15:00,44.5,18.7,-100.00,WSW,244,7.4,12.3,35,0.00,,,-99.99,1.0,HOBO +U30 +Weather +,2013-01-19 06:15:00,
2013-01-18 23:20:00,45.1,18.4,-100.00,WSW,244,7.4,11.2,34,0.00,,,-99.99,1.0,HOBO +U30 +Weather +,2013-01-19 06:20:00,
2013-01-18 23:25:00,44.3,18.8,-100.00,WSW,244,6.3,11.9,35,0.00,,,-99.99,1.0,HOBO +U30 +Weather +,2013-01-19 06:25:00,
2013-01-18 23:30:00,42.3,18.8,-100.00,SSW,209,1.1,5.1,38,0.00,,,-99.99,1.0,HOBO +U30 +Weather +,2013-01-19 06:30:00,
2013-01-18 23:35:00,43.1,18.8,-100.00,WSW,247,3.4,8.5,37,0.00,,,-99.99,1.0,HOBO +U30 +Weather +,2013-01-19 06:35:00,
2013-01-18 23:40:00,40.4,18.9,-100.00,WSW,243,0.7,5.1,41,0.00,,,-99.99,1.0,HOBO +U30 +Weather +,2013-01-19 06:40:00,
2013-01-18 23:45:00,40.2,19.1,-100.00,SW,227,0.7,5.6,42,0.00,,,-99.99,1.0,HOBO +U30 +Weather +,2013-01-19 06:45:00,
2013-01-18 23:50:00,39.3,19.6,-100.00,SW,219,1.1,4.0,44,0.00,,,-99.99,1.0,HOBO +U30 +Weather +,2013-01-19 06:50:00,
2013-01-18 23:55:00,39.5,19.4,-100.00,SSW,211,5.6,8.9,44,0.00,,,-99.99,1.0,HOBO +U30 +Weather +,2013-01-19 06:55:00,